createdAt,value
2023-02-11T00:01:19.608Z,103163.75
2023-02-11T00:03:46.779Z,103139.69
2023-02-11T00:06:13.883Z,103139.69
2023-02-11T00:08:40.865Z,103123.56
2023-02-11T00:11:07.919Z,103121.38
2023-02-11T00:13:34.877Z,103136.16
2023-02-11T00:16:07.335Z,103129.03
2023-02-11T00:18:34.329Z,103141.94
2023-02-11T00:21:16.444Z,103148.78
2023-02-11T00:23:44.046Z,103146.84
2023-02-11T00:26:15.875Z,103166.88
2023-02-11T00:28:43.840Z,103169.63
2023-02-11T00:31:12.208Z,103157.88
2023-02-11T00:33:39.189Z,103155.97
2023-02-11T00:36:13.801Z,103150.19
2023-02-11T00:38:43.841Z,103149.94
2023-02-11T00:41:13.102Z,103138.44
2023-02-11T00:43:40.770Z,103149.94
2023-02-11T00:46:09.773Z,103143.09
2023-02-11T00:48:36.980Z,103139.56
2023-02-11T00:51:04.365Z,103136.25
2023-02-11T00:53:32.953Z,103125.56
2023-02-11T00:56:01.192Z,103124.72
2023-02-11T00:58:28.648Z,103134.63
2023-02-11T01:00:56.527Z,103144.72
2023-02-11T01:03:24.802Z,103162.00
2023-02-11T01:05:51.959Z,103168.03
2023-02-11T01:08:19.266Z,103158.44
2023-02-11T01:10:53.368Z,103158.44
2023-02-11T01:13:21.165Z,103151.00
2023-02-11T01:15:48.348Z,103157.59
2023-02-11T01:18:15.446Z,103143.88
2023-02-11T01:20:42.723Z,103138.13
2023-02-11T01:23:09.564Z,103145.78
2023-02-11T01:25:36.411Z,103137.56
2023-02-11T01:28:04.186Z,103139.75
2023-02-11T01:30:31.750Z,103145.25
2023-02-11T01:32:58.686Z,103135.66
2023-02-11T01:35:25.552Z,103144.13
2023-02-11T01:37:52.662Z,103149.88
2023-02-11T01:40:19.770Z,103146.03
2023-02-11T01:42:49.402Z,103146.56
2023-02-11T01:45:46.324Z,103154.81
2023-02-11T01:48:18.146Z,103151.81
2023-02-11T01:50:46.976Z,103146.81
2023-02-11T01:53:33.588Z,103130.94
2023-02-11T01:56:18.915Z,103123.75
2023-02-11T01:58:49.158Z,103122.38
2023-02-11T02:01:20.000Z,103132.22
2023-02-11T02:03:50.132Z,103134.41
2023-02-11T02:06:23.115Z,103129.75
2023-02-11T02:09:00.250Z,103132.72
2023-02-11T02:11:29.662Z,103118.19
2023-02-11T02:13:56.810Z,103119.53
2023-02-11T02:16:34.482Z,103110.47
2023-02-11T02:19:20.425Z,103117.63
2023-02-11T02:22:05.592Z,103102.81
2023-02-11T02:24:57.876Z,103110.47
2023-02-11T02:27:48.387Z,103108.53
2023-02-11T02:30:49.511Z,103110.19
2023-02-11T02:33:23.054Z,103106.03
2023-02-11T02:36:14.150Z,103099.72
2023-02-11T02:39:04.326Z,103102.78
2023-02-11T02:41:34.454Z,103111.78
2023-02-11T02:44:02.169Z,103115.38
2023-02-11T02:46:32.738Z,103112.63
2023-02-11T02:48:59.982Z,103096.72
2023-02-11T02:52:12.052Z,103094.78
2023-02-11T02:55:03.942Z,103092.59
2023-02-11T02:57:48.997Z,103088.75
2023-02-11T03:00:54.156Z,103099.72
2023-02-11T03:03:36.059Z,103093.09
2023-02-11T03:06:30.595Z,103095.59
2023-02-11T03:09:06.089Z,103096.41
2023-02-11T03:11:34.836Z,103087.88
2023-02-11T03:14:04.672Z,103088.44
2023-02-11T03:16:38.428Z,103087.59
2023-02-11T03:19:26.589Z,103082.94
2023-02-11T03:21:53.732Z,103083.75
2023-02-11T03:24:34.284Z,103085.38
2023-02-11T03:27:32.680Z,103080.19
2023-02-11T03:30:06.460Z,103078.25
2023-02-11T03:32:39.483Z,103075.22
2023-02-11T03:35:27.297Z,103068.91
2023-02-11T03:38:00.522Z,103061.22
2023-02-11T03:40:32.694Z,103068.34
2023-02-11T03:43:08.502Z,103063.94
2023-02-11T03:45:39.070Z,103063.94
2023-02-11T03:48:16.389Z,103064.75
2023-02-11T03:50:45.727Z,103069.13
2023-02-11T03:53:14.948Z,103068.03
2023-02-11T03:55:44.096Z,103074.06
2023-02-11T03:58:11.238Z,103072.13
2023-02-11T04:00:41.101Z,103065.00
2023-02-11T04:03:09.265Z,103078.72
2023-02-11T04:05:36.405Z,103079.28
2023-02-11T04:08:03.718Z,103080.09
2023-02-11T04:10:30.737Z,103087.50
2023-02-11T04:12:57.979Z,103090.25
2023-02-11T04:15:25.438Z,103083.63
2023-02-11T04:17:52.339Z,103089.13
2023-02-11T04:20:19.382Z,103086.94
2023-02-11T04:22:46.356Z,103087.78
2023-02-11T04:25:13.168Z,103077.06
2023-02-11T04:27:40.095Z,103088.03
2023-02-11T04:30:10.065Z,103078.44
2023-02-11T04:32:37.114Z,103082.53
2023-02-11T04:35:04.283Z,103096.81
2023-02-11T04:37:31.148Z,103092.44
2023-02-11T04:39:58.059Z,103091.31
2023-02-11T04:42:25.135Z,103083.91
2023-02-11T04:44:52.110Z,103088.03
2023-02-11T04:47:19.516Z,103088.28
2023-02-11T04:49:46.504Z,103081.69
2023-02-11T04:52:13.310Z,103082.81
2023-02-11T04:54:40.699Z,103079.47
2023-02-11T04:57:07.652Z,103082.75
2023-02-11T04:59:34.597Z,103075.63
2023-02-11T05:02:02.156Z,103076.75
2023-02-11T05:04:29.038Z,103080.84
2023-02-11T05:06:58.524Z,103085.75
2023-02-11T05:09:25.599Z,103092.59
2023-02-11T05:11:53.666Z,103093.94
2023-02-11T05:14:20.728Z,103088.19
2023-02-11T05:16:47.879Z,103098.34
2023-02-11T05:19:14.789Z,103085.13
2023-02-11T05:21:53.162Z,103101.34
2023-02-11T05:24:24.054Z,103096.13
2023-02-11T05:26:50.950Z,103093.94
2023-02-11T05:29:17.802Z,103097.81
2023-02-11T05:31:44.859Z,103091.25
2023-02-11T05:34:11.815Z,103090.72
2023-02-11T05:36:38.676Z,103083.84
2023-02-11T05:39:05.650Z,103089.13
2023-02-11T05:41:32.713Z,103088.28
2023-02-11T05:43:59.625Z,103088.28
2023-02-11T05:46:26.592Z,103073.75
2023-02-11T05:48:54.408Z,103084.78
2023-02-11T05:51:21.267Z,103086.47
2023-02-11T05:53:48.188Z,103079.94
2023-02-11T05:56:15.225Z,103076.69
2023-02-11T05:58:42.042Z,103080.84
2023-02-11T06:01:08.992Z,103079.75
2023-02-11T06:03:35.937Z,103084.44
2023-02-11T06:06:02.758Z,103091.34
2023-02-11T06:08:29.589Z,103085.59
2023-02-11T06:10:56.476Z,103087.81
2023-02-11T06:13:23.334Z,103089.19
2023-02-11T06:16:00.854Z,103094.16
2023-02-11T06:18:29.521Z,103090.56
2023-02-11T06:20:56.517Z,103085.91
2023-02-11T06:23:23.577Z,103100.72
2023-02-11T06:25:51.242Z,103096.06
2023-02-11T06:28:18.934Z,103100.44
2023-02-11T06:30:46.093Z,103102.88
2023-02-11T06:33:13.019Z,103100.13
2023-02-11T06:35:40.185Z,103099.84
2023-02-11T06:38:07.335Z,103104.22
2023-02-11T06:40:34.319Z,103103.13
2023-02-11T06:43:01.252Z,103102.53
2023-02-11T06:45:28.271Z,103106.69
2023-02-11T06:47:55.177Z,103100.91
2023-02-11T06:50:22.242Z,103101.41
2023-02-11T06:52:49.220Z,103105.81
2023-02-11T06:55:16.116Z,103096.50
2023-02-11T06:57:43.311Z,103103.59
2023-02-11T07:00:11.226Z,103100.59
2023-02-11T07:02:38.076Z,103088.53
2023-02-11T07:05:06.843Z,103103.03
2023-02-11T07:07:34.546Z,103107.44
2023-02-11T07:10:03.206Z,103113.44
2023-02-11T07:12:31.162Z,103111.25
2023-02-11T07:14:58.520Z,103112.63
2023-02-11T07:17:25.360Z,103113.97
2023-02-11T07:19:52.645Z,103111.22
2023-02-11T07:22:19.865Z,103123.28
2023-02-11T07:24:46.773Z,103122.16
2023-02-11T07:27:13.737Z,103119.44
2023-02-11T07:29:42.672Z,103120.81
2023-02-11T07:32:10.611Z,103120.56
2023-02-11T07:34:37.621Z,103121.41
2023-02-11T07:37:05.001Z,103118.94
2023-02-11T07:39:32.174Z,103127.75
2023-02-11T07:41:59.854Z,103129.97
2023-02-11T07:44:27.618Z,103120.63
2023-02-11T07:46:54.646Z,103125.56
2023-02-11T07:49:21.519Z,103131.56
2023-02-11T07:51:50.069Z,103120.06
2023-02-11T07:54:17.650Z,103119.81
2023-02-11T07:56:44.577Z,103126.94
2023-02-11T07:59:12.968Z,103128.34
2023-02-11T08:01:40.190Z,103134.38
2023-02-11T08:04:07.108Z,103138.53
2023-02-11T08:06:35.500Z,103135.50
2023-02-11T08:09:07.362Z,103142.91
2023-02-11T08:11:34.254Z,103152.50
2023-02-11T08:14:01.504Z,103139.84
2023-02-11T08:16:31.009Z,103146.16
2023-02-11T08:19:02.094Z,103151.31
2023-02-11T08:21:30.098Z,103155.41
2023-02-11T08:23:57.662Z,103157.84
2023-02-11T08:26:30.225Z,103161.41
2023-02-11T08:28:59.030Z,103158.91
2023-02-11T08:31:40.759Z,103169.28
2023-02-11T08:34:08.322Z,103167.06
2023-02-11T08:36:39.123Z,103163.44
2023-02-11T08:39:19.334Z,103173.59
2023-02-11T08:41:52.530Z,103181.28
2023-02-11T08:44:20.771Z,103184.53
2023-02-11T08:46:48.546Z,103195.47
2023-02-11T08:49:16.818Z,103187.75
2023-02-11T08:51:44.452Z,103187.72
2023-02-11T08:54:11.829Z,103197.00
2023-02-11T08:56:39.126Z,103201.63
2023-02-11T08:59:07.398Z,103206.81
2023-02-11T09:01:34.828Z,103205.69
2023-02-11T09:04:02.153Z,103207.28
2023-02-11T09:06:29.537Z,103206.69
2023-02-11T09:08:59.105Z,103214.06
2023-02-11T09:11:35.311Z,103211.31
2023-02-11T09:14:04.117Z,103222.56
2023-02-11T09:16:34.031Z,103228.91
2023-02-11T09:19:03.445Z,103230.19
2023-02-11T09:21:30.823Z,103226.88
2023-02-11T09:23:57.697Z,103235.69
2023-02-11T09:26:27.910Z,103233.19
2023-02-11T09:28:55.253Z,103228.72
2023-02-11T09:31:24.897Z,103239.16
2023-02-11T09:33:54.845Z,103245.78
2023-02-11T09:36:25.565Z,103240.75
2023-02-11T09:38:53.470Z,103245.16
2023-02-11T09:41:23.345Z,103255.84
2023-02-11T09:44:03.020Z,103254.16
2023-02-11T09:46:34.550Z,103264.91
2023-02-11T09:49:02.773Z,103275.59
2023-02-11T09:51:39.458Z,103279.94
2023-02-11T09:54:15.551Z,103276.56
2023-02-11T09:56:42.695Z,103277.63
2023-02-11T09:59:17.674Z,103277.13
2023-02-11T10:01:51.173Z,103278.28
2023-02-11T10:04:56.952Z,103279.94
2023-02-11T10:07:25.483Z,103291.53
2023-02-11T10:10:01.615Z,103292.88
2023-02-11T10:12:55.320Z,103299.75
2023-02-11T10:15:45.168Z,103302.09
2023-02-11T10:18:30.634Z,103312.44
2023-02-11T10:21:00.141Z,103308.28
2023-02-11T10:23:33.639Z,103308.00
2023-02-11T10:26:01.534Z,103316.78
2023-02-11T10:28:32.766Z,103317.63
2023-02-11T10:31:03.648Z,103312.97
2023-02-11T10:33:51.595Z,103326.97
2023-02-11T10:36:21.285Z,103319.47
2023-02-11T10:38:48.110Z,103315.63
2023-02-11T10:41:20.799Z,103325.81
2023-02-11T10:43:48.237Z,103327.47
2023-02-11T10:46:21.256Z,103327.97
2023-02-11T10:48:53.304Z,103331.25
2023-02-11T10:51:22.151Z,103335.69
2023-02-11T10:54:13.812Z,103334.41
2023-02-11T10:56:47.682Z,103336.25
2023-02-11T10:59:31.926Z,103335.09
2023-02-11T11:02:01.076Z,103342.97
2023-02-11T11:04:30.821Z,103342.53
2023-02-11T11:07:25.638Z,103350.88
2023-02-11T11:10:05.199Z,103350.25
2023-02-11T11:12:47.447Z,103359.88
2023-02-11T11:15:23.695Z,103362.31
2023-02-11T11:18:20.899Z,103369.34
2023-02-11T11:21:05.869Z,103366.50
2023-02-11T11:23:36.494Z,103375.84
2023-02-11T11:26:12.809Z,103372.06
2023-02-11T11:28:50.577Z,103378.53
2023-02-11T11:31:22.210Z,103380.91
2023-02-11T11:33:53.363Z,103381.75
2023-02-11T11:36:23.841Z,103382.63
2023-02-11T11:38:55.773Z,103394.94
2023-02-11T11:41:34.875Z,103387.63
2023-02-11T11:44:39.898Z,103400.34
2023-02-11T11:47:13.446Z,103394.56
2023-02-11T11:49:53.319Z,103386.38
2023-02-11T11:52:32.210Z,103385.16
2023-02-11T11:55:07.923Z,103385.53
2023-02-11T11:57:38.741Z,103374.47
2023-02-11T12:00:14.893Z,103374.84
2023-02-11T12:03:00.915Z,103379.66
2023-02-11T12:05:42.402Z,103392.41
2023-02-11T12:08:21.355Z,103395.97
2023-02-11T12:11:12.554Z,103391.81
2023-02-11T12:13:54.711Z,103391.44
2023-02-11T12:16:50.439Z,103395.09
2023-02-11T12:19:35.533Z,103398.16
2023-02-11T12:22:35.585Z,103388.16
2023-02-11T12:25:26.693Z,103394.13
2023-02-11T12:28:25.741Z,103388.75
2023-02-11T12:31:07.840Z,103383.53
2023-02-11T12:33:38.002Z,103389.72
2023-02-11T12:36:20.223Z,103383.69
2023-02-11T12:39:23.379Z,103385.47
2023-02-11T12:42:34.184Z,103384.34
2023-02-11T12:45:14.021Z,103392.09
2023-02-11T12:48:11.554Z,103400.00
2023-02-11T12:51:09.193Z,103396.19
2023-02-11T12:53:42.271Z,103394.56
2023-02-11T12:56:27.004Z,103390.81
2023-02-11T12:58:57.841Z,103393.75
2023-02-11T13:01:44.890Z,103380.31
2023-02-11T13:04:54.162Z,103379.72
2023-02-11T13:07:32.448Z,103386.28
2023-02-11T13:10:26.265Z,103377.41
2023-02-11T13:13:15.004Z,103373.28
2023-02-11T13:15:46.781Z,103374.59
2023-02-11T13:18:25.886Z,103368.59
2023-02-11T13:21:16.579Z,103374.56
2023-02-11T13:24:09.118Z,103382.47
2023-02-11T13:27:02.026Z,103374.28
2023-02-11T13:29:50.934Z,103370.22
2023-02-11T13:32:17.895Z,103374.75
2023-02-11T13:34:44.700Z,103378.78
2023-02-11T13:37:39.778Z,103382.41
2023-02-11T13:40:20.218Z,103377.19
2023-02-11T13:42:53.176Z,103372.31
2023-02-11T13:45:43.884Z,103376.09
2023-02-11T13:48:27.700Z,103382.34
2023-02-11T13:50:58.760Z,103387.31
2023-02-11T13:53:27.618Z,103391.16
2023-02-11T13:56:24.013Z,103390.56
2023-02-11T13:58:51.630Z,103388.03
2023-02-11T14:02:12.550Z,103392.78
2023-02-11T14:05:36.843Z,103407.56
2023-02-11T14:08:28.553Z,103396.91
2023-02-11T14:11:30.649Z,103413.03
2023-02-11T14:14:14.633Z,103410.78
2023-02-11T14:17:00.296Z,103410.16
2023-02-11T14:19:53.844Z,103410.78
2023-02-11T14:22:28.761Z,103406.00
2023-02-11T14:24:55.701Z,103412.84
2023-02-11T14:27:40.289Z,103410.22
2023-02-11T14:30:12.552Z,103410.16
2023-02-11T14:33:09.347Z,103403.00
2023-02-11T14:36:00.381Z,103398.81
2023-02-11T14:38:34.276Z,103402.69
2023-02-11T14:41:07.846Z,103397.75
2023-02-11T14:43:43.247Z,103404.09
2023-02-11T14:46:10.426Z,103402.94
2023-02-11T14:48:39.450Z,103404.97
2023-02-11T14:51:27.151Z,103397.06
2023-02-11T14:54:01.965Z,103406.84
2023-02-11T14:56:34.601Z,103410.88
2023-02-11T14:59:02.837Z,103416.66
2023-02-11T15:01:32.830Z,103416.50
2023-02-11T15:04:01.632Z,103423.88
2023-02-11T15:06:33.242Z,103421.19
2023-02-11T15:09:08.059Z,103423.34
2023-02-11T15:11:40.365Z,103427.13
2023-02-11T15:14:17.002Z,103425.00
2023-02-11T15:16:46.188Z,103431.22
2023-02-11T15:19:35.866Z,103434.84
2023-02-11T15:22:07.500Z,103450.28
2023-02-11T15:24:35.642Z,103433.88
2023-02-11T15:27:15.622Z,103421.44
2023-02-11T15:29:51.989Z,103440.13
2023-02-11T15:32:24.599Z,103438.78
2023-02-11T15:34:53.951Z,103435.53
2023-02-11T15:37:32.354Z,103447.38
2023-02-11T15:40:19.130Z,103449.63
2023-02-11T15:43:03.663Z,103455.78
2023-02-11T15:45:44.578Z,103456.09
2023-02-11T15:48:22.758Z,103444.63
2023-02-11T15:50:59.178Z,103451.00
2023-02-11T15:53:31.358Z,103448.56
2023-02-11T15:56:21.443Z,103453.81
2023-02-11T15:58:49.869Z,103453.63
2023-02-11T16:01:17.249Z,103459.91
2023-02-11T16:03:50.033Z,103453.31
2023-02-11T16:06:21.851Z,103455.00
2023-02-11T16:09:08.155Z,103446.78
2023-02-11T16:11:53.761Z,103450.09
2023-02-11T16:14:34.452Z,103444.94
2023-02-11T16:17:26.144Z,103449.91
2023-02-11T16:19:53.862Z,103448.25
2023-02-11T16:22:27.744Z,103452.97
2023-02-11T16:24:59.823Z,103457.94
2023-02-11T16:27:34.173Z,103468.16
2023-02-11T16:30:01.810Z,103471.19
2023-02-11T16:32:30.539Z,103463.53
2023-02-11T16:35:00.947Z,103467.66
2023-02-11T16:37:28.253Z,103465.78
2023-02-11T16:39:56.200Z,103475.97
2023-02-11T16:42:23.560Z,103472.69
2023-02-11T16:44:50.537Z,103474.38
2023-02-11T16:47:25.316Z,103479.88
2023-02-11T16:49:52.962Z,103481.28
2023-02-11T16:52:22.291Z,103479.38
2023-02-11T16:54:50.648Z,103482.09
2023-02-11T16:57:28.103Z,103481.03
2023-02-11T16:59:56.762Z,103482.97
2023-02-11T17:02:27.408Z,103482.94
2023-02-11T17:04:56.393Z,103483.75
2023-02-11T17:07:23.313Z,103496.38
2023-02-11T17:09:51.780Z,103497.16
2023-02-11T17:12:19.244Z,103509.50
2023-02-11T17:14:46.318Z,103503.72
2023-02-11T17:17:13.930Z,103509.19
2023-02-11T17:19:40.735Z,103515.75
2023-02-11T17:22:07.791Z,103515.72
2023-02-11T17:24:34.908Z,103515.69
2023-02-11T17:27:02.286Z,103511.31
2023-02-11T17:29:29.114Z,103516.78
2023-02-11T17:31:57.152Z,103518.94
2023-02-11T17:34:24.215Z,103520.00
2023-02-11T17:36:51.906Z,103522.97
2023-02-11T17:39:21.128Z,103528.75
2023-02-11T17:41:48.543Z,103531.72
2023-02-11T17:44:16.556Z,103531.47
2023-02-11T17:46:43.758Z,103524.59
2023-02-11T17:49:12.179Z,103531.47
2023-02-11T17:51:39.845Z,103530.94
2023-02-11T17:54:16.956Z,103532.53
2023-02-11T17:56:44.998Z,103536.91
2023-02-11T17:59:13.341Z,103547.22
2023-02-11T18:01:41.841Z,103545.53
2023-02-11T18:04:13.993Z,103549.28
2023-02-11T18:06:41.234Z,103548.69
2023-02-11T18:09:08.112Z,103556.03
2023-02-11T18:11:38.121Z,103562.03
2023-02-11T18:14:07.972Z,103551.56
2023-02-11T18:16:36.795Z,103564.09
2023-02-11T18:19:04.292Z,103573.88
2023-02-11T18:21:31.479Z,103573.09
2023-02-11T18:24:01.155Z,103587.22
2023-02-11T18:26:31.589Z,103588.56
2023-02-11T18:29:00.225Z,103579.81
2023-02-11T18:31:28.302Z,103580.56
2023-02-11T18:33:55.566Z,103587.91
2023-02-11T18:36:23.453Z,103588.38
2023-02-11T18:38:52.683Z,103606.13
2023-02-11T18:41:20.049Z,103594.59
2023-02-11T18:43:47.074Z,103601.19
2023-02-11T18:46:15.621Z,103609.13
2023-02-11T18:48:44.869Z,103607.16
2023-02-11T18:51:18.483Z,103611.47
2023-02-11T18:53:45.901Z,103597.81
2023-02-11T18:56:15.744Z,103606.25
2023-02-11T18:58:43.024Z,103607.03
2023-02-11T19:01:18.573Z,103613.00
2023-02-11T19:03:45.860Z,103604.81
2023-02-11T19:06:34.755Z,103603.09
2023-02-11T19:09:06.488Z,103605.78
2023-02-11T19:11:54.297Z,103602.97
2023-02-11T19:14:26.800Z,103603.47
2023-02-11T19:16:56.410Z,103605.91
2023-02-11T19:19:25.060Z,103607.81
2023-02-11T19:21:52.176Z,103614.63
2023-02-11T19:24:19.998Z,103610.03
2023-02-11T19:26:48.968Z,103612.78
2023-02-11T19:29:16.643Z,103608.88
2023-02-11T19:31:44.046Z,103615.91
2023-02-11T19:34:14.132Z,103620.25
2023-02-11T19:36:41.454Z,103616.63
2023-02-11T19:39:08.866Z,103613.31
2023-02-11T19:41:36.183Z,103617.38
2023-02-11T19:44:04.514Z,103622.28
2023-02-11T19:46:36.480Z,103629.38
2023-02-11T19:49:04.691Z,103616.03
2023-02-11T19:51:33.846Z,103621.84
2023-02-11T19:54:00.836Z,103619.75
2023-02-11T19:56:31.284Z,103616.25
2023-02-11T19:58:58.389Z,103614.34
2023-02-11T20:01:26.301Z,103619.50
2023-02-11T20:03:55.364Z,103623.56
2023-02-11T20:06:25.179Z,103620.00
2023-02-11T20:08:58.617Z,103628.53
2023-02-11T20:11:28.249Z,103620.09
2023-02-11T20:13:56.500Z,103620.88
2023-02-11T20:16:40.702Z,103618.47
2023-02-11T20:19:17.008Z,103622.31
2023-02-11T20:21:47.192Z,103621.47
2023-02-11T20:24:15.752Z,103625.84
2023-02-11T20:26:42.923Z,103628.53
2023-02-11T20:29:09.874Z,103629.34
2023-02-11T20:31:37.155Z,103625.28
2023-02-11T20:34:04.575Z,103627.78
2023-02-11T20:36:35.742Z,103640.97
2023-02-11T20:39:05.007Z,103645.47
2023-02-11T20:41:34.910Z,103656.00
2023-02-11T20:44:04.914Z,103652.63
2023-02-11T20:46:34.044Z,103656.28
2023-02-11T20:49:02.102Z,103657.00
2023-02-11T20:51:31.760Z,103656.44
2023-02-11T20:53:59.312Z,103650.25
2023-02-11T20:56:33.140Z,103668.25
2023-02-11T20:59:02.273Z,103664.38
2023-02-11T21:01:40.293Z,103677.22
2023-02-11T21:04:12.437Z,103674.63
2023-02-11T21:06:45.010Z,103674.06
2023-02-11T21:09:14.711Z,103679.75
2023-02-11T21:11:42.175Z,103678.69
2023-02-11T21:14:10.883Z,103688.06
2023-02-11T21:16:39.264Z,103690.88
2023-02-11T21:19:06.934Z,103684.06
2023-02-11T21:21:36.324Z,103692.63
2023-02-11T21:24:03.776Z,103697.50
2023-02-11T21:26:30.782Z,103703.47
2023-02-11T21:28:57.759Z,103700.47
2023-02-11T21:31:27.000Z,103697.75
2023-02-11T21:33:56.684Z,103695.94
2023-02-11T21:36:24.439Z,103709.13
2023-02-11T21:38:51.986Z,103698.84
2023-02-11T21:41:22.579Z,103708.59
2023-02-11T21:43:50.447Z,103712.88
2023-02-11T21:46:18.668Z,103706.97
2023-02-11T21:48:46.067Z,103724.88
2023-02-11T21:51:22.788Z,103736.28
2023-02-11T21:53:54.541Z,103735.19
2023-02-11T21:56:22.240Z,103733.66
2023-02-11T21:58:53.355Z,103735.41
2023-02-11T22:01:23.077Z,103745.69
2023-02-11T22:03:50.391Z,103737.69
2023-02-11T22:06:23.452Z,103736.03
2023-02-11T22:08:50.856Z,103738.19
2023-02-11T22:11:19.401Z,103737.63
2023-02-11T22:13:47.030Z,103741.88
2023-02-11T22:16:16.780Z,103746.03
2023-02-11T22:18:47.137Z,103743.84
2023-02-11T22:21:16.903Z,103746.88
2023-02-11T22:23:44.397Z,103740.94
2023-02-11T22:26:16.636Z,103736.03
2023-02-11T22:28:44.567Z,103738.19
2023-02-11T22:31:14.118Z,103746.28
2023-02-11T22:33:41.732Z,103740.16
2023-02-11T22:36:14.664Z,103744.91
2023-02-11T22:38:41.548Z,103743.16
2023-02-11T22:41:10.053Z,103756.09
2023-02-11T22:43:38.151Z,103751.47
2023-02-11T22:46:07.368Z,103755.84
2023-02-11T22:48:35.711Z,103758.03
2023-02-11T22:51:11.586Z,103760.81
2023-02-11T22:53:39.307Z,103763.97
2023-02-11T22:56:09.130Z,103762.16
2023-02-11T22:58:36.597Z,103768.78
2023-02-11T23:01:05.111Z,103774.56
2023-02-11T23:03:33.338Z,103771.84
2023-02-11T23:06:01.356Z,103776.81
2023-02-11T23:08:29.448Z,103780.44
2023-02-11T23:10:56.738Z,103778.91
2023-02-11T23:13:23.597Z,103784.44
2023-02-11T23:15:50.668Z,103787.19
2023-02-11T23:18:17.561Z,103788.59
2023-02-11T23:20:45.245Z,103783.94
2023-02-11T23:23:12.536Z,103785.03
2023-02-11T23:25:44.187Z,103782.19
2023-02-11T23:28:12.032Z,103787.34
2023-02-11T23:30:39.574Z,103783.69
2023-02-11T23:33:06.477Z,103785.84
2023-02-11T23:35:33.429Z,103786.91
2023-02-11T23:38:00.502Z,103787.44
2023-02-11T23:40:27.472Z,103785.56
2023-02-11T23:42:54.478Z,103792.00
2023-02-11T23:45:21.720Z,103783.25
2023-02-11T23:47:48.654Z,103786.19
2023-02-11T23:50:15.764Z,103791.34
2023-02-11T23:52:42.682Z,103793.25
2023-02-11T23:55:09.824Z,103790.16
2023-02-11T23:57:36.983Z,103804.31
